Hlavní strana
METAR-TAF:

METAR-TAF

Letiště :

Letiště Bologna

Bologna, Itálie

zeměpisná šířka: 44-32N, zeměpisná délka: 011-18E, výška: 36 m

Aktuální stav počasí

Zpráva byla vytvořena před 28 minutami, v 01:20 UTC
Západojihozápadní vítr 4 kt, proměnlivý mezi jihojihozápadním a západním
Teplota 21°C
Vlhkost vzduchu 78%
Tlak 1017 hPa
Viditelnost 10 km a více
Polojasno ve výšce 8000 ft

METAR: LIPE 190120Z 24004KT 210V270 9999 SCT080 21/17 Q1017

Čas: 03:48 (01:48 UTC)

Předpověď počasí

Zpráva byla vytvořena před 2 hodinami a 48 minutami, v 23:00 UTC
Předpověď platná od 19 v 00 UTC do 19 v 24 UTC
vítr z různých směrů 5 kt
Viditelnost 10 km a více
Žádná oblačnost pod 1500 m, nevyskytují se cumulonimby.

TAF: LIPE 182300Z 1900/1924 VRB05KT CAVOK

Stav a předpovědi počasí z více než 4 000 letišť (zprávy METAR a TAF).

Červené a žluté tečky na mapě představují dostupné meteorologické stanice.

Když kurzor umístíte na tečku, zobrazí se název stanice.

Pak kliknutím zobrazíte stav a předpověď počasí.

Chcete-li změnit mapu, kliknutím na zelené tlačítko se znaménkem +mapu přiblížíte, kliknutím na zelené tlačítko se znaménkem – mapu oddálíte a kliknutím na zelené šipky přejdete na sousední mapy.


METAR-TAF: